createdAt,value
2022-10-06T00:02:42.331Z,10.43
2022-10-06T00:07:46.077Z,10.00
2022-10-06T00:12:51.496Z,9.67
2022-10-06T00:17:54.856Z,10.10
2022-10-06T00:22:59.030Z,9.93
2022-10-06T00:28:02.822Z,10.13
2022-10-06T00:33:06.371Z,10.30
2022-10-06T00:38:13.576Z,11.63
2022-10-06T00:43:49.475Z,11.43
2022-10-06T00:49:14.479Z,11.50
2022-10-06T00:54:18.644Z,12.17
2022-10-06T00:59:22.141Z,11.57
2022-10-06T01:04:26.296Z,12.57
2022-10-06T01:09:30.936Z,13.00
2022-10-06T01:14:37.305Z,13.23
2022-10-06T01:20:00.796Z,12.37
2022-10-06T01:25:06.665Z,12.00
2022-10-06T01:30:13.906Z,10.87
2022-10-06T01:35:17.426Z,11.13
2022-10-06T01:40:21.016Z,10.80
2022-10-06T01:45:24.416Z,11.17
2022-10-06T01:50:28.006Z,10.30
2022-10-06T01:55:31.396Z,10.57
2022-10-06T02:00:34.755Z,10.47
2022-10-06T02:05:38.064Z,10.37
2022-10-06T02:10:41.443Z,9.57
2022-10-06T02:15:44.796Z,9.93
2022-10-06T02:20:48.852Z,9.63
2022-10-06T02:26:07.019Z,9.57
2022-10-06T02:31:11.329Z,10.57
2022-10-06T02:36:17.263Z,10.17
2022-10-06T02:41:20.717Z,10.90
2022-10-06T02:46:24.868Z,10.33
2022-10-06T02:51:28.371Z,9.03
2022-10-06T02:56:31.757Z,9.63
2022-10-06T03:01:35.195Z,9.60
2022-10-06T03:06:38.745Z,10.43
2022-10-06T03:11:44.297Z,11.37
2022-10-06T03:16:47.664Z,9.63
2022-10-06T03:21:50.983Z,8.87
2022-10-06T03:26:54.377Z,9.30
2022-10-06T03:31:59.066Z,9.47
2022-10-06T03:37:02.604Z,10.50
2022-10-06T03:42:06.283Z,9.53
2022-10-06T03:47:12.143Z,9.47
2022-10-06T03:52:25.075Z,9.70
2022-10-06T03:57:29.303Z,9.23
2022-10-06T04:02:32.616Z,8.50
2022-10-06T04:07:36.050Z,9.13
2022-10-06T04:12:39.316Z,9.23
2022-10-06T04:17:42.592Z,8.43
2022-10-06T04:22:45.869Z,10.47
2022-10-06T04:27:49.299Z,9.23
2022-10-06T04:32:53.374Z,10.13
2022-10-06T04:37:57.537Z,10.20
2022-10-06T04:43:00.755Z,9.73
2022-10-06T04:48:04.410Z,9.40
2022-10-06T04:53:07.678Z,8.87
2022-10-06T04:58:11.079Z,8.40
2022-10-06T05:03:14.177Z,8.47
2022-10-06T05:08:17.998Z,7.47
2022-10-06T05:13:21.151Z,7.30
2022-10-06T05:18:25.139Z,7.20
2022-10-06T05:23:29.550Z,6.13
2022-10-06T05:28:34.301Z,7.03
2022-10-06T05:33:38.233Z,7.50
2022-10-06T05:38:41.829Z,7.27
2022-10-06T05:43:45.962Z,7.57
2022-10-06T05:49:00.124Z,8.67
2022-10-06T05:54:04.057Z,7.30
2022-10-06T05:59:07.520Z,8.10
2022-10-06T06:04:12.830Z,9.47
2022-10-06T06:09:19.281Z,9.63
2022-10-06T06:14:41.750Z,10.90
2022-10-06T06:19:45.146Z,11.53
2022-10-06T06:24:48.681Z,11.43
2022-10-06T06:29:52.389Z,10.67
2022-10-06T06:34:55.643Z,11.10
2022-10-06T06:39:59.410Z,11.20
2022-10-06T06:45:02.441Z,10.27
2022-10-06T06:50:10.738Z,10.40
2022-10-06T06:55:14.088Z,10.97
2022-10-06T07:00:17.791Z,9.40
2022-10-06T07:05:21.258Z,10.07
2022-10-06T07:10:26.638Z,8.80
2022-10-06T07:15:48.170Z,7.60
2022-10-06T07:21:09.607Z,6.97
2022-10-06T07:26:12.869Z,6.40
2022-10-06T07:31:19.573Z,6.40
2022-10-06T07:36:23.160Z,5.23
2022-10-06T07:41:26.980Z,5.33
2022-10-06T07:46:30.338Z,5.23
2022-10-06T07:51:33.857Z,4.60
2022-10-06T07:56:36.908Z,4.37
2022-10-06T08:01:41.236Z,4.50
2022-10-06T08:06:44.849Z,4.10
2022-10-06T08:11:49.446Z,4.40
2022-10-06T08:16:53.390Z,3.50
2022-10-06T08:21:58.971Z,3.73
2022-10-06T08:27:05.959Z,3.50
2022-10-06T08:32:09.189Z,3.40
2022-10-06T08:37:20.468Z,3.20
2022-10-06T08:42:34.561Z,3.45
2022-10-06T08:47:38.493Z,3.33
2022-10-06T08:52:52.080Z,3.50
2022-10-06T08:58:01.868Z,2.70
2022-10-06T09:03:05.539Z,2.70
2022-10-06T09:08:43.749Z,2.38
2022-10-06T09:14:20.598Z,2.15
2022-10-06T09:19:48.049Z,1.77
2022-10-06T09:24:57.569Z,1.85
2022-10-06T09:30:02.240Z,1.65
2022-10-06T09:35:22.052Z,1.73
2022-10-06T09:40:51.546Z,1.77
2022-10-06T09:45:55.869Z,1.50
2022-10-06T09:51:14.759Z,1.40
2022-10-06T09:56:19.997Z,1.42
2022-10-06T10:01:29.268Z,1.40
2022-10-06T10:06:38.720Z,1.42
2022-10-06T10:19:21.839Z,1.73
2022-10-06T10:23:44.037Z,0.98
2022-10-06T10:29:52.267Z,0.93
2022-10-06T10:35:06.500Z,1.08
2022-10-06T10:40:18.396Z,1.00
2022-10-06T10:45:52.189Z,0.85
2022-10-06T10:51:04.216Z,0.80
2022-10-06T10:56:13.896Z,0.80
2022-10-06T11:01:50.972Z,0.60
2022-10-06T11:07:00.351Z,0.77
2022-10-06T11:12:38.477Z,0.65
2022-10-06T11:17:47.202Z,1.40
2022-10-06T11:23:16.404Z,0.65
2022-10-06T11:28:33.287Z,0.80
2022-10-06T11:33:46.438Z,0.47
2022-10-06T11:38:58.604Z,0.90
2022-10-06T11:44:30.417Z,0.30
2022-10-06T11:49:56.932Z,0.43
2022-10-06T11:55:16.660Z,0.40
2022-10-06T12:00:39.843Z,0.57
2022-10-06T12:05:56.083Z,0.50
2022-10-06T12:10:59.913Z,1.05
2022-10-06T12:22:09.061Z,1.00
2022-10-06T12:27:35.120Z,0.98
2022-10-06T12:32:56.499Z,0.57
2022-10-06T12:38:26.871Z,1.17
2022-10-06T12:43:35.568Z,1.15
2022-10-06T12:48:54.120Z,0.95
2022-10-06T12:54:22.359Z,0.70
2022-10-06T12:59:32.901Z,1.00
2022-10-06T13:04:41.140Z,0.90
2022-10-06T13:09:45.847Z,0.70
2022-10-06T13:15:09.107Z,0.47
2022-10-06T13:20:31.901Z,0.98
2022-10-06T13:25:44.960Z,0.73
2022-10-06T13:30:59.668Z,0.60
2022-10-06T13:36:03.559Z,0.70
2022-10-06T13:41:16.380Z,0.45
2022-10-06T13:46:23.611Z,0.65
2022-10-06T13:51:32.529Z,0.60
2022-10-06T13:56:40.763Z,0.90
2022-10-06T14:01:44.236Z,0.80
2022-10-06T14:07:33.595Z,0.60
2022-10-06T14:12:48.087Z,0.60
2022-10-06T14:19:44.039Z,0.88
2022-10-06T14:25:44.023Z,0.50
2022-10-06T14:38:27.199Z,0.73
2022-10-06T14:55:46.120Z,0.60
2022-10-06T15:01:37.079Z,0.98
2022-10-06T15:14:15.900Z,0.47
2022-10-06T16:00:01.521Z,1.23
2022-10-06T16:23:23.779Z,1.80
2022-10-06T16:28:26.896Z,1.60
2022-10-06T16:33:29.925Z,2.57
2022-10-06T16:38:33.537Z,1.90
2022-10-06T16:43:42.400Z,2.50
2022-10-06T16:48:47.782Z,3.57
2022-10-06T16:53:54.736Z,3.37
2022-10-06T16:59:00.801Z,6.50
2022-10-06T17:04:10.254Z,5.03
2022-10-06T17:09:15.726Z,3.30
2022-10-06T17:14:20.579Z,4.33
2022-10-06T17:19:28.140Z,5.87
2022-10-06T17:24:32.770Z,9.13
2022-10-06T17:29:36.701Z,13.37
2022-10-06T17:34:41.481Z,10.17
2022-10-06T17:39:47.098Z,11.43
2022-10-06T17:44:53.028Z,8.37
2022-10-06T17:49:58.060Z,7.13
2022-10-06T17:55:02.031Z,7.23
2022-10-06T18:00:07.760Z,7.70
2022-10-06T18:05:11.125Z,7.50
2022-10-06T18:10:34.269Z,8.13
2022-10-06T18:15:38.082Z,8.70
2022-10-06T18:20:42.920Z,8.20
2022-10-06T18:25:47.540Z,8.37
2022-10-06T18:30:53.319Z,7.70
2022-10-06T18:36:14.998Z,8.57
2022-10-06T18:41:21.326Z,7.70
2022-10-06T18:46:45.360Z,7.73
2022-10-06T18:51:57.953Z,7.57
2022-10-06T18:57:02.219Z,7.43
2022-10-06T19:02:06.824Z,11.03
2022-10-06T19:07:20.041Z,18.00
2022-10-06T19:12:25.819Z,14.40
2022-10-06T19:17:29.182Z,10.07
2022-10-06T19:22:34.643Z,8.00
2022-10-06T19:27:39.031Z,7.00
2022-10-06T19:32:43.089Z,6.13
2022-10-06T19:37:46.987Z,5.37
2022-10-06T19:42:52.174Z,7.50
2022-10-06T19:47:58.089Z,8.33
2022-10-06T19:53:02.480Z,7.20
2022-10-06T19:58:06.066Z,9.77
2022-10-06T20:03:09.584Z,12.40
2022-10-06T20:08:13.163Z,12.10
2022-10-06T20:13:16.999Z,20.77
2022-10-06T20:18:21.368Z,22.27
2022-10-06T20:23:24.801Z,32.47
2022-10-06T20:28:29.443Z,33.57
2022-10-06T20:33:36.369Z,34.07
2022-10-06T20:38:58.848Z,36.73
2022-10-06T20:44:03.209Z,40.80
2022-10-06T20:49:09.358Z,43.17
2022-10-06T20:54:13.455Z,42.87
2022-10-06T20:59:16.983Z,42.53
2022-10-06T21:04:21.987Z,51.17
2022-10-06T21:09:26.216Z,28.50
2022-10-06T21:14:30.833Z,22.50
2022-10-06T21:19:38.291Z,24.60
2022-10-06T21:24:41.752Z,27.40
2022-10-06T21:29:45.051Z,29.13
2022-10-06T21:34:48.380Z,29.87
2022-10-06T21:39:52.111Z,28.70
2022-10-06T21:44:57.854Z,29.47
2022-10-06T21:50:01.471Z,29.60
2022-10-06T21:55:05.461Z,27.90
2022-10-06T22:00:12.572Z,24.50
2022-10-06T22:05:15.893Z,22.13
2022-10-06T22:10:19.210Z,20.37
2022-10-06T22:15:22.590Z,21.50
2022-10-06T22:20:25.837Z,17.03
2022-10-06T22:25:29.472Z,20.33
2022-10-06T22:30:32.771Z,17.60
2022-10-06T22:35:36.052Z,16.13
2022-10-06T22:40:39.435Z,17.43
2022-10-06T22:45:42.952Z,18.40
2022-10-06T22:50:47.451Z,19.13
2022-10-06T22:55:51.791Z,21.07
2022-10-06T23:00:56.032Z,19.03
2022-10-06T23:06:01.258Z,20.67
2022-10-06T23:11:13.733Z,20.03
2022-10-06T23:16:18.982Z,19.70
2022-10-06T23:21:28.035Z,17.63
2022-10-06T23:26:32.871Z,13.73
2022-10-06T23:31:36.278Z,14.07
2022-10-06T23:36:39.830Z,14.90
2022-10-06T23:41:43.211Z,15.33
2022-10-06T23:46:46.589Z,13.27
2022-10-06T23:51:49.690Z,13.40
2022-10-06T23:56:53.972Z,15.17
